createdAt,value
2023-05-14T00:01:39.040Z,99108.94
2023-05-14T00:04:42.433Z,99116.81
2023-05-14T00:07:46.090Z,99110.63
2023-05-14T00:10:49.443Z,99107.69
2023-05-14T00:13:54.617Z,99106.66
2023-05-14T00:16:59.520Z,99107.25
2023-05-14T00:20:03.197Z,99108.91
2023-05-14T00:23:06.583Z,99109.31
2023-05-14T00:26:10.353Z,99105.97
2023-05-14T00:29:16.782Z,99112.59
2023-05-14T00:32:20.744Z,99098.09
2023-05-14T00:35:24.447Z,99105.53
2023-05-14T00:38:28.728Z,99102.22
2023-05-14T00:41:32.199Z,99099.72
2023-05-14T00:44:37.505Z,99098.25
2023-05-14T00:47:41.338Z,99095.97
2023-05-14T00:50:45.319Z,99094.72
2023-05-14T00:53:49.935Z,99102.16
2023-05-14T00:56:55.136Z,99106.47
2023-05-14T01:00:00.484Z,99109.13
2023-05-14T01:03:07.634Z,99108.69
2023-05-14T01:06:19.585Z,99102.69
2023-05-14T01:09:34.564Z,99101.66
2023-05-14T01:12:48.958Z,99092.94
2023-05-14T01:15:58.652Z,99095.22
2023-05-14T01:19:06.629Z,99094.97
2023-05-14T01:22:12.796Z,99089.78
2023-05-14T01:25:16.268Z,99096.19
2023-05-14T01:28:26.369Z,99090.81
2023-05-14T01:31:34.865Z,99088.31
2023-05-14T01:34:41.974Z,99088.94
2023-05-14T01:37:50.084Z,99084.59
2023-05-14T01:40:55.816Z,99092.22
2023-05-14T01:43:59.807Z,99079.59
2023-05-14T01:47:03.809Z,99074.41
2023-05-14T01:50:08.435Z,99079.16
2023-05-14T01:53:13.755Z,99082.47
2023-05-14T01:56:17.270Z,99081.84
2023-05-14T01:59:21.116Z,99088.41
2023-05-14T02:02:24.640Z,99083.47
2023-05-14T02:05:28.578Z,99083.03
2023-05-14T02:08:34.042Z,99081.13
2023-05-14T02:11:37.980Z,99082.56
2023-05-14T02:14:41.671Z,99082.50
2023-05-14T02:17:45.714Z,99078.34
2023-05-14T02:20:49.256Z,99076.91
2023-05-14T02:23:56.113Z,99083.47
2023-05-14T02:27:01.002Z,99079.13
2023-05-14T02:30:06.217Z,99079.25
2023-05-14T02:33:09.944Z,99078.97
2023-05-14T02:36:13.894Z,99079.13
2023-05-14T02:39:18.755Z,99078.22
2023-05-14T02:42:22.806Z,99078.16
2023-05-14T02:45:26.718Z,99085.97
2023-05-14T02:48:30.630Z,99074.34
2023-05-14T02:51:34.068Z,99073.84
2023-05-14T02:54:39.664Z,99069.22
2023-05-14T02:57:43.206Z,99066.28
2023-05-14T03:00:47.182Z,99064.25
2023-05-14T03:03:50.997Z,99061.84
2023-05-14T03:06:55.437Z,99058.97
2023-05-14T03:10:00.777Z,99054.84
2023-05-14T03:13:04.582Z,99059.47
2023-05-14T03:16:08.742Z,99047.53
2023-05-14T03:19:13.606Z,99049.63
2023-05-14T03:22:17.330Z,99048.84
2023-05-14T03:25:22.559Z,99039.19
2023-05-14T03:28:26.308Z,99046.00
2023-05-14T03:31:30.116Z,99051.84
2023-05-14T03:34:33.992Z,99055.53
2023-05-14T03:37:38.128Z,99058.47
2023-05-14T03:40:43.123Z,99050.44
2023-05-14T03:43:46.942Z,99056.44
2023-05-14T03:46:50.374Z,99052.13
2023-05-14T03:49:54.388Z,99053.03
2023-05-14T03:52:57.836Z,99052.03
2023-05-14T03:56:03.323Z,99042.38
2023-05-14T03:59:06.854Z,99039.72
2023-05-14T04:02:10.965Z,99047.63
2023-05-14T04:05:14.439Z,99041.84
2023-05-14T04:08:18.923Z,99039.59
2023-05-14T04:11:23.794Z,99039.47
2023-05-14T04:14:27.577Z,99030.84
2023-05-14T04:17:31.150Z,99032.78
2023-05-14T04:20:35.180Z,99023.94
2023-05-14T04:23:38.663Z,99028.53
2023-05-14T04:26:43.715Z,99024.63
2023-05-14T04:29:47.085Z,99017.00
2023-05-14T04:32:51.432Z,99021.16
2023-05-14T04:35:55.151Z,99021.19
2023-05-14T04:38:59.105Z,99017.50
2023-05-14T04:42:03.918Z,99020.41
2023-05-14T04:45:09.197Z,99015.44
2023-05-14T04:48:12.690Z,99007.34
2023-05-14T04:51:16.486Z,99014.97
2023-05-14T04:54:19.958Z,99007.28
2023-05-14T04:57:25.057Z,99008.09
2023-05-14T05:00:28.628Z,99002.66
2023-05-14T05:03:33.183Z,99004.72
2023-05-14T05:06:36.592Z,99003.81
2023-05-14T05:09:40.262Z,99002.78
2023-05-14T05:12:45.057Z,99002.31
2023-05-14T05:15:48.942Z,99005.56
2023-05-14T05:18:52.411Z,99012.97
2023-05-14T05:21:56.418Z,99002.78
2023-05-14T05:25:00.102Z,99001.25
2023-05-14T05:28:05.839Z,99008.25
2023-05-14T05:31:09.396Z,99000.94
2023-05-14T05:34:13.696Z,98997.13
2023-05-14T05:37:17.058Z,98998.75
2023-05-14T05:40:20.912Z,99001.38
2023-05-14T05:43:25.744Z,98996.78
2023-05-14T05:46:29.652Z,98992.97
2023-05-14T05:49:33.550Z,98995.97
2023-05-14T05:52:37.221Z,98994.81
2023-05-14T05:55:42.254Z,98999.38
2023-05-14T05:58:47.393Z,98998.72
2023-05-14T06:01:51.142Z,98995.47
2023-05-14T06:04:55.032Z,98991.66
2023-05-14T06:07:58.464Z,98983.03
2023-05-14T06:11:02.282Z,98978.97
2023-05-14T06:14:07.433Z,98988.63
2023-05-14T06:17:11.944Z,99000.56
2023-05-14T06:20:15.562Z,98986.75
2023-05-14T06:23:19.305Z,98983.50
2023-05-14T06:26:23.440Z,98985.53
2023-05-14T06:29:28.720Z,99002.50
2023-05-14T06:32:32.169Z,98988.66
2023-05-14T06:35:35.881Z,98987.28
2023-05-14T06:38:39.305Z,98984.81
2023-05-14T06:41:42.936Z,98989.09
2023-05-14T06:44:52.545Z,98984.41
2023-05-14T06:47:56.841Z,98976.63
2023-05-14T06:51:01.203Z,98978.09
2023-05-14T06:54:08.018Z,98975.72
2023-05-14T06:57:11.413Z,98975.88
2023-05-14T07:00:18.653Z,98962.78
2023-05-14T07:03:22.701Z,98954.34
2023-05-14T07:06:29.266Z,98952.31
2023-05-14T07:09:32.683Z,98954.94
2023-05-14T07:12:36.576Z,98945.03
2023-05-14T07:15:41.418Z,98939.72
2023-05-14T07:18:46.637Z,98926.88
2023-05-14T07:21:50.084Z,98933.09
2023-05-14T07:24:53.952Z,98935.06
2023-05-14T07:27:57.368Z,98941.81
2023-05-14T07:31:02.627Z,98950.81
2023-05-14T07:34:06.065Z,98956.22
2023-05-14T07:37:10.370Z,98959.66
2023-05-14T07:40:14.119Z,98952.81
2023-05-14T07:43:17.829Z,98955.13
2023-05-14T07:46:23.908Z,98955.47
2023-05-14T07:49:27.740Z,98960.63
2023-05-14T07:52:31.164Z,98952.50
2023-05-14T07:55:34.946Z,98949.03
2023-05-14T07:58:38.273Z,98941.13
2023-05-14T08:01:43.446Z,98945.09
2023-05-14T08:04:47.357Z,98946.25
2023-05-14T08:07:51.356Z,98934.25
2023-05-14T08:10:54.790Z,98944.16
2023-05-14T08:13:58.586Z,98949.97
2023-05-14T08:17:03.563Z,98947.22
2023-05-14T08:20:09.904Z,98951.59
2023-05-14T08:23:13.294Z,98955.72
2023-05-14T08:26:17.126Z,98954.19
2023-05-14T08:29:20.692Z,98953.97
2023-05-14T08:32:25.881Z,98949.78
2023-05-14T08:35:29.235Z,98941.41
2023-05-14T08:38:32.994Z,98932.41
2023-05-14T08:41:37.468Z,98934.75
2023-05-14T08:44:49.941Z,98927.38
2023-05-14T08:47:56.934Z,98915.22
2023-05-14T08:51:01.811Z,98914.41
2023-05-14T08:54:07.003Z,98911.69
2023-05-14T08:57:11.593Z,98902.09
2023-05-14T09:00:16.309Z,98908.31
2023-05-14T09:03:23.169Z,98916.97
2023-05-14T09:06:27.392Z,98911.06
2023-05-14T09:09:32.126Z,98917.13
2023-05-14T09:20:32.499Z,98899.13
2023-05-14T09:23:44.896Z,98906.81
2023-05-14T09:26:52.788Z,98894.84
2023-05-14T09:29:56.404Z,98890.47
2023-05-14T09:32:59.828Z,98885.09
2023-05-14T09:36:05.210Z,98872.84
2023-05-14T09:39:08.665Z,98887.03
2023-05-14T09:42:12.341Z,98894.41
2023-05-14T09:45:16.216Z,98884.28
2023-05-14T09:48:20.199Z,98875.22
2023-05-14T09:51:25.783Z,98874.72
2023-05-14T09:54:30.142Z,98874.75
2023-05-14T09:57:33.648Z,98878.06
2023-05-14T10:00:37.966Z,98870.41
2023-05-14T10:03:42.034Z,98878.84
2023-05-14T10:06:52.342Z,98864.63
2023-05-14T10:10:02.944Z,98860.25
2023-05-14T10:13:15.422Z,98864.34
2023-05-14T10:16:28.386Z,98858.88
2023-05-14T10:19:35.487Z,98849.03
2023-05-14T10:22:41.007Z,98849.84
2023-05-14T10:25:45.554Z,98844.13
2023-05-14T10:28:49.471Z,98835.88
2023-05-14T10:31:55.509Z,98840.28
2023-05-14T10:35:03.089Z,98834.78
2023-05-14T10:38:10.929Z,98827.56
2023-05-14T10:41:17.865Z,98819.28
2023-05-14T10:44:23.135Z,98818.59
2023-05-14T10:47:28.370Z,98815.53
2023-05-14T10:50:32.447Z,98800.72
2023-05-14T10:53:39.783Z,98796.13
2023-05-14T10:56:46.937Z,98795.75
2023-05-14T10:59:54.956Z,98789.13
2023-05-14T11:02:59.562Z,98784.59
2023-05-14T11:06:05.359Z,98785.88
2023-05-14T11:09:11.703Z,98779.84
2023-05-14T11:12:15.425Z,98782.13
2023-05-14T11:15:22.273Z,98781.38
2023-05-14T11:18:29.705Z,98778.25
2023-05-14T11:21:33.755Z,98771.03
2023-05-14T11:24:39.139Z,98768.59
2023-05-14T11:27:45.545Z,98757.16
2023-05-14T11:30:49.463Z,98764.13
2023-05-14T11:33:54.279Z,98765.81
2023-05-14T11:36:57.678Z,98761.34
2023-05-14T11:40:02.971Z,98761.38
2023-05-14T11:43:06.483Z,98756.25
2023-05-14T11:46:19.131Z,98749.47
2023-05-14T11:49:23.762Z,98760.81
2023-05-14T11:52:27.730Z,98747.75
2023-05-14T11:55:35.771Z,98752.56
2023-05-14T11:58:39.590Z,98754.38
2023-05-14T12:01:43.024Z,98756.69
2023-05-14T12:04:52.408Z,98747.41
2023-05-14T12:07:56.130Z,98745.84
2023-05-14T12:11:02.528Z,98753.16
2023-05-14T12:14:13.355Z,98739.50
2023-05-14T12:17:19.804Z,98733.59
2023-05-14T12:20:26.320Z,98732.97
2023-05-14T12:23:32.206Z,98735.88
2023-05-14T12:26:38.804Z,98735.06
2023-05-14T12:29:44.466Z,98718.47
2023-05-14T12:32:48.891Z,98715.88
2023-05-14T12:35:53.824Z,98700.69
2023-05-14T12:39:03.544Z,98699.59
2023-05-14T12:42:08.870Z,98700.56
2023-05-14T12:45:13.173Z,98701.91
2023-05-14T12:48:16.938Z,98698.94
2023-05-14T12:51:20.404Z,98699.56
2023-05-14T12:54:24.357Z,98695.38
2023-05-14T12:57:30.242Z,98685.91
2023-05-14T13:00:34.031Z,98685.28
2023-05-14T13:03:37.476Z,98679.66
2023-05-14T13:06:41.601Z,98682.75
2023-05-14T13:09:45.056Z,98683.16
2023-05-14T13:12:50.649Z,98686.09
2023-05-14T13:15:55.554Z,98681.22
2023-05-14T13:18:59.315Z,98668.03
2023-05-14T13:22:02.736Z,98671.66
2023-05-14T13:25:07.984Z,98663.94
2023-05-14T13:28:12.899Z,98663.84
2023-05-14T13:31:16.840Z,98662.91
2023-05-14T13:34:20.596Z,98663.78
2023-05-14T13:37:25.616Z,98657.03
2023-05-14T13:40:29.025Z,98651.09
2023-05-14T13:43:36.577Z,98647.94
2023-05-14T13:46:40.084Z,98656.06
2023-05-14T13:49:44.472Z,98645.41
2023-05-14T13:52:47.859Z,98648.16
2023-05-14T13:55:56.254Z,98649.16
2023-05-14T13:59:01.125Z,98645.78
2023-05-14T14:02:05.830Z,98640.22
2023-05-14T14:05:10.487Z,98631.88
2023-05-14T14:08:23.374Z,98632.06
2023-05-14T14:11:28.007Z,98629.63
2023-05-14T14:14:33.285Z,98624.66
2023-05-14T14:17:36.860Z,98621.91
2023-05-14T14:20:40.641Z,98617.13
2023-05-14T14:23:43.969Z,98600.94
2023-05-14T14:26:47.588Z,98589.16
2023-05-14T14:29:52.594Z,98588.22
2023-05-14T14:32:57.023Z,98590.09
2023-05-14T14:36:00.465Z,98595.25
2023-05-14T14:39:04.856Z,98597.00
2023-05-14T14:42:08.604Z,98608.75
2023-05-14T14:45:14.117Z,98598.38
2023-05-14T14:48:26.304Z,98579.31
2023-05-14T14:51:30.261Z,98579.94
2023-05-14T14:54:33.725Z,98576.19
2023-05-14T14:57:37.376Z,98570.81
2023-05-14T15:00:42.353Z,98558.09
2023-05-14T15:03:48.227Z,98564.44
2023-05-14T15:06:51.688Z,98566.16
2023-05-14T15:09:55.484Z,98558.50
2023-05-14T15:12:59.985Z,98543.44
2023-05-14T15:16:05.214Z,98545.03
2023-05-14T15:19:08.937Z,98538.78
2023-05-14T15:22:13.181Z,98531.63
2023-05-14T15:25:16.784Z,98531.91
2023-05-14T15:28:20.736Z,98524.22
2023-05-14T15:31:25.928Z,98515.72
2023-05-14T15:34:29.796Z,98517.56
2023-05-14T15:37:39.230Z,98503.22
2023-05-14T15:40:42.979Z,98509.38
2023-05-14T15:43:46.413Z,98509.28
2023-05-14T15:46:51.842Z,98512.78
2023-05-14T15:49:55.576Z,98506.34
2023-05-14T15:52:59.309Z,98512.03
2023-05-14T15:56:02.742Z,98511.00
2023-05-14T15:59:06.380Z,98511.91
2023-05-14T16:02:11.879Z,98505.16
2023-05-14T16:05:16.020Z,98507.72
2023-05-14T16:08:19.401Z,98498.19
2023-05-14T16:11:23.060Z,98488.63
2023-05-14T16:14:26.557Z,98500.19
2023-05-14T16:17:32.812Z,98492.81
2023-05-14T16:20:36.277Z,98496.66
2023-05-14T16:23:39.933Z,98499.72
2023-05-14T16:26:43.589Z,98497.28
2023-05-14T16:29:47.376Z,98485.88
2023-05-14T16:32:52.454Z,98481.00
2023-05-14T16:35:56.284Z,98473.94
2023-05-14T16:39:07.087Z,98456.78
2023-05-14T16:42:11.333Z,98453.53
2023-05-14T16:45:14.997Z,98457.97
2023-05-14T16:48:20.036Z,98457.16
2023-05-14T16:51:23.934Z,98456.94
2023-05-14T16:54:27.612Z,98455.03
2023-05-14T16:57:31.340Z,98450.41
2023-05-14T17:00:35.002Z,98451.53
2023-05-14T17:03:39.954Z,98454.53
2023-05-14T17:06:43.646Z,98455.13
2023-05-14T17:09:47.011Z,98457.84
2023-05-14T17:12:50.674Z,98462.81
2023-05-14T17:16:13.154Z,98461.19
2023-05-14T17:19:17.834Z,98448.94
2023-05-14T17:22:21.789Z,98445.16
2023-05-14T17:25:26.414Z,98440.78
2023-05-14T17:28:30.960Z,98438.88
2023-05-14T17:31:34.397Z,98440.00
2023-05-14T17:34:40.068Z,98435.63
2023-05-14T17:37:44.119Z,98432.41
2023-05-14T17:40:48.000Z,98436.75
2023-05-14T17:43:52.458Z,98420.41
2023-05-14T17:46:56.810Z,98422.81
2023-05-14T17:50:01.619Z,98426.41
2023-05-14T17:53:05.455Z,98416.56
2023-05-14T17:56:08.864Z,98427.22
2023-05-14T17:59:12.882Z,98422.88
2023-05-14T18:02:16.267Z,98414.13
2023-05-14T18:05:21.616Z,98414.97
2023-05-14T18:08:25.079Z,98410.59
2023-05-14T18:11:33.657Z,98406.75
2023-05-14T18:14:37.110Z,98400.22
2023-05-14T18:17:41.045Z,98407.56
2023-05-14T18:20:45.906Z,98408.97
2023-05-14T18:23:50.108Z,98407.84
2023-05-14T18:26:53.526Z,98402.13
2023-05-14T18:29:57.258Z,98400.47
2023-05-14T18:33:00.806Z,98399.94
2023-05-14T18:36:06.840Z,98397.50
2023-05-14T18:39:10.709Z,98386.88
2023-05-14T18:42:14.426Z,98395.31
2023-05-14T18:45:17.972Z,98397.50
2023-05-14T18:48:21.960Z,98389.84
2023-05-14T18:51:26.746Z,98399.38
2023-05-14T18:54:30.485Z,98391.75
2023-05-14T18:57:33.984Z,98377.03
2023-05-14T19:00:37.759Z,98390.94
2023-05-14T19:03:42.260Z,98380.31
2023-05-14T19:06:47.825Z,98376.47
2023-05-14T19:09:51.198Z,98384.34
2023-05-14T19:12:54.904Z,98382.16
2023-05-14T19:15:58.573Z,98375.59
2023-05-14T19:19:02.454Z,98375.06
2023-05-14T19:22:07.600Z,98372.91
2023-05-14T19:25:12.314Z,98370.69
2023-05-14T19:28:16.575Z,98355.44
2023-05-14T19:31:20.792Z,98353.25
2023-05-14T19:34:24.177Z,98363.03
2023-05-14T19:37:29.751Z,98364.09
2023-05-14T19:40:33.113Z,98376.06
2023-05-14T19:43:36.811Z,98363.25
2023-05-14T19:46:40.526Z,98364.34
2023-05-14T19:49:44.592Z,98377.66
2023-05-14T19:52:49.603Z,98383.09
2023-05-14T19:55:53.288Z,98381.19
2023-05-14T19:58:56.778Z,98391.25
2023-05-14T20:02:01.139Z,98402.66
2023-05-14T20:05:06.690Z,98388.75
2023-05-14T20:08:12.097Z,98372.44
2023-05-14T20:11:17.900Z,98381.38
2023-05-14T20:14:21.542Z,98388.97
2023-05-14T20:17:25.191Z,98397.34
2023-05-14T20:20:32.181Z,98420.97
2023-05-14T20:23:37.955Z,98409.47
2023-05-14T20:26:41.552Z,98405.81
2023-05-14T20:29:46.642Z,98411.97
2023-05-14T20:32:50.470Z,98411.78
2023-05-14T20:35:53.900Z,98414.34
2023-05-14T20:39:00.616Z,98415.84
2023-05-14T20:42:04.012Z,98417.88
2023-05-14T20:45:09.383Z,98402.00
2023-05-14T20:48:16.146Z,98401.41
2023-05-14T20:51:21.537Z,98401.59
2023-05-14T20:54:26.301Z,98406.63
2023-05-14T20:57:30.251Z,98403.84
2023-05-14T21:00:33.599Z,98401.09
2023-05-14T21:03:37.965Z,98390.66
2023-05-14T21:06:41.691Z,98385.19
2023-05-14T21:09:52.107Z,98381.91
2023-05-14T21:12:55.456Z,98381.59
2023-05-14T21:16:00.226Z,98373.22
2023-05-14T21:19:03.707Z,98370.50
2023-05-14T21:22:08.441Z,98368.03
2023-05-14T21:25:13.209Z,98367.47
2023-05-14T21:28:16.841Z,98361.75
2023-05-14T21:31:45.238Z,98357.16
2023-05-14T21:34:48.983Z,98350.09
2023-05-14T21:37:52.849Z,98335.44
2023-05-14T21:40:57.890Z,98333.00
2023-05-14T21:44:01.498Z,98338.41
2023-05-14T21:47:05.862Z,98324.53
2023-05-14T21:50:10.538Z,98318.22
2023-05-14T21:53:14.202Z,98310.88
2023-05-14T21:56:19.150Z,98305.69
2023-05-14T21:59:22.931Z,98308.91
2023-05-14T22:02:26.556Z,98305.38
2023-05-14T22:05:30.838Z,98302.66
2023-05-14T22:08:34.407Z,98308.91
2023-05-14T22:11:39.524Z,98294.22
2023-05-14T22:14:42.875Z,98297.44
2023-05-14T22:17:46.904Z,98292.03
2023-05-14T22:20:50.383Z,98286.91
2023-05-14T22:23:53.988Z,98275.50
2023-05-14T22:26:58.866Z,98274.13
2023-05-14T22:30:02.603Z,98257.03
2023-05-14T22:33:06.362Z,98246.44
2023-05-14T22:36:11.518Z,98238.81
2023-05-14T22:39:15.040Z,98232.00
2023-05-14T22:42:20.397Z,98233.34
2023-05-14T22:45:25.159Z,98224.91
2023-05-14T22:48:29.098Z,98215.88
2023-05-14T22:51:32.735Z,98217.72
2023-05-14T22:54:36.389Z,98215.28
2023-05-14T22:57:41.262Z,98201.66
2023-05-14T23:00:44.950Z,98189.94
2023-05-14T23:03:48.426Z,98188.00
2023-05-14T23:06:52.153Z,98182.03
2023-05-14T23:09:55.728Z,98173.31
2023-05-14T23:13:00.792Z,98171.69
2023-05-14T23:16:05.997Z,98172.75
2023-05-14T23:19:09.902Z,98170.28
2023-05-14T23:22:13.618Z,98171.34
2023-05-14T23:25:17.486Z,98149.97
2023-05-14T23:28:22.704Z,98135.25
2023-05-14T23:31:26.388Z,98112.78
2023-05-14T23:34:29.986Z,98103.28
2023-05-14T23:37:36.766Z,98099.16
2023-05-14T23:40:40.279Z,98095.59
2023-05-14T23:43:45.394Z,98092.34
2023-05-14T23:46:49.203Z,98078.78
2023-05-14T23:49:53.006Z,98083.31
2023-05-14T23:52:57.158Z,98077.34
2023-05-14T23:56:01.116Z,98080.00
2023-05-14T23:59:06.301Z,98068.84
